createdAt,value
2022-12-15T00:05:12.707Z,1.1
2022-12-15T00:10:59.889Z,1.2
2022-12-15T00:16:23.660Z,1
2022-12-15T00:21:30.674Z,1
2022-12-15T00:26:54.082Z,0.9
2022-12-15T00:32:35.139Z,0.9
2022-12-15T00:37:41.727Z,0.9
2022-12-15T00:43:06.258Z,0.9
2022-12-15T00:48:47.736Z,0.8
2022-12-15T00:54:13.262Z,0.8
2022-12-15T00:59:53.779Z,0.8
2022-12-15T01:05:19.059Z,0.9
2022-12-15T01:10:42.263Z,1
2022-12-15T01:16:07.938Z,1
2022-12-15T01:27:08.046Z,1.1
2022-12-15T01:32:15.590Z,1.1
2022-12-15T01:42:46.390Z,1.1
2022-12-15T01:48:09.978Z,1.1
2022-12-15T01:53:50.092Z,1.1
2022-12-15T01:59:31.729Z,1.1
2022-12-15T02:05:01.102Z,1.1
2022-12-15T02:10:42.024Z,1.2
2022-12-15T02:16:08.159Z,1.2
2022-12-15T02:21:46.964Z,1.2
2022-12-15T02:27:24.999Z,1.2
2022-12-15T02:33:02.530Z,1.2
2022-12-15T02:38:40.767Z,1.3
2022-12-15T02:44:22.903Z,1.3
2022-12-15T02:50:00.925Z,1.3
2022-12-15T02:55:39.523Z,1.3
2022-12-15T03:01:01.562Z,1.1
2022-12-15T03:06:24.793Z,1.1
2022-12-15T03:12:07.151Z,1.1
2022-12-15T03:17:37.069Z,1.2
2022-12-15T03:23:15.116Z,1.1
2022-12-15T03:28:52.862Z,1.1
2022-12-15T03:34:18.221Z,1.1
2022-12-15T03:39:39.154Z,1.1
2022-12-15T03:45:18.925Z,1.1
2022-12-15T03:50:46.666Z,1.1
2022-12-15T03:56:24.771Z,1.1
2022-12-15T04:02:08.976Z,1.1
2022-12-15T04:07:48.642Z,1.1
2022-12-15T04:13:10.730Z,1.1
2022-12-15T04:18:38.223Z,1.3
2022-12-15T04:24:19.347Z,1.3
2022-12-15T04:30:02.900Z,1.4
2022-12-15T04:35:49.815Z,1.4
2022-12-15T04:41:28.040Z,1.6
2022-12-15T04:46:52.683Z,1.6
2022-12-15T04:52:31.217Z,1.6
2022-12-15T04:57:56.716Z,1.6
2022-12-15T05:14:16.879Z,1.6
2022-12-15T05:19:43.455Z,1.4
2022-12-15T05:25:06.999Z,1.4
2022-12-15T05:30:35.712Z,1.5
2022-12-15T05:36:21.845Z,1.4
2022-12-15T05:41:44.080Z,1.5
2022-12-15T05:47:25.151Z,1.4
2022-12-15T05:53:05.946Z,1.3
2022-12-15T05:58:45.552Z,1.3
2022-12-15T06:04:08.981Z,1.4
2022-12-15T06:09:57.054Z,1.4
2022-12-15T06:15:35.637Z,1.6
2022-12-15T06:21:24.500Z,1.6
2022-12-15T06:27:06.616Z,1.7
2022-12-15T06:32:50.209Z,1.7
2022-12-15T06:38:33.467Z,1.9
2022-12-15T06:43:47.424Z,2
2022-12-15T06:49:30.198Z,2.1
2022-12-15T06:55:16.116Z,2.2
2022-12-15T07:00:49.342Z,2.3
2022-12-15T07:06:34.462Z,2.6
2022-12-15T07:12:01.201Z,2.9
2022-12-15T07:17:45.870Z,2.9
2022-12-15T07:23:39.844Z,3.4
2022-12-15T07:29:33.197Z,3.6
2022-12-15T07:35:11.482Z,3.7
2022-12-15T07:40:53.961Z,3.8
2022-12-15T07:46:41.796Z,3.9
2022-12-15T07:52:26.312Z,4
2022-12-15T07:58:41.185Z,4.1
2022-12-15T08:04:07.165Z,3.8
2022-12-15T08:09:47.124Z,4
2022-12-15T08:16:03.735Z,3.9
2022-12-15T08:21:43.617Z,4
2022-12-15T08:27:23.234Z,4.4
2022-12-15T08:33:42.271Z,4.8
2022-12-15T08:39:37.924Z,4.8
2022-12-15T08:50:29.456Z,5.3
2022-12-15T08:56:51.297Z,5.6
2022-12-15T09:02:31.998Z,5.8
2022-12-15T09:08:10.920Z,6
2022-12-15T09:13:53.516Z,6.5
2022-12-15T09:20:07.194Z,6.1
2022-12-15T09:25:57.490Z,5.9
2022-12-15T09:31:35.979Z,5.5
2022-12-15T09:37:18.878Z,5.2
2022-12-15T09:43:17.901Z,5.1
2022-12-15T09:49:11.636Z,5
2022-12-15T09:55:08.629Z,4.7
2022-12-15T10:00:52.737Z,4.8
2022-12-15T10:06:50.976Z,4.8
2022-12-15T10:12:33.534Z,4.9
2022-12-15T10:18:08.935Z,5.1
2022-12-15T10:23:40.856Z,5
2022-12-15T15:05:31.952Z,4.1
2022-12-15T15:11:11.370Z,4
2022-12-15T15:16:33.697Z,3.9
2022-12-15T15:22:14.403Z,3.9
2022-12-15T15:27:57.213Z,4
2022-12-15T15:33:26.472Z,4
2022-12-15T15:39:05.658Z,3.9
2022-12-15T15:44:50.329Z,3.9
2022-12-15T15:50:15.612Z,3.9
2022-12-15T15:55:39.938Z,3.9
2022-12-15T16:01:06.859Z,3.8
2022-12-15T16:06:50.140Z,3.7
2022-12-15T16:12:13.162Z,3.6
2022-12-15T16:17:58.274Z,3.5
2022-12-15T16:23:22.589Z,3.4
2022-12-15T16:28:54.663Z,3.6
2022-12-15T16:34:02.885Z,3.4
2022-12-15T16:39:41.864Z,3.2
2022-12-15T16:45:09.092Z,3.1
2022-12-15T16:50:17.491Z,3.3
2022-12-15T16:55:41.478Z,3.1
2022-12-15T17:01:38.323Z,3.1
2022-12-15T17:07:21.129Z,3.1
2022-12-15T17:12:43.469Z,2.9
2022-12-15T17:18:29.969Z,2.8
2022-12-15T17:24:12.094Z,2.7
2022-12-15T17:30:34.954Z,2.5
2022-12-15T17:36:15.785Z,2.3
2022-12-15T17:42:23.476Z,2.3
2022-12-15T17:48:36.608Z,2.4
2022-12-15T17:54:19.013Z,2.6
2022-12-15T17:59:47.484Z,2.4
2022-12-15T18:05:27.612Z,2.5
2022-12-15T18:10:49.450Z,2.4
2022-12-15T18:16:28.183Z,2.4
2022-12-15T18:22:08.979Z,2.4
2022-12-15T18:27:33.117Z,2.2
2022-12-15T18:32:57.315Z,2.2
2022-12-15T18:38:37.305Z,2.2
2022-12-15T18:44:21.469Z,2.1
2022-12-15T18:50:04.329Z,1.9
2022-12-15T18:55:43.204Z,2.1
2022-12-15T19:01:05.618Z,2.1
2022-12-15T19:06:46.078Z,2
2022-12-15T19:12:07.917Z,1.8
2022-12-15T19:17:48.797Z,1.6
2022-12-15T19:23:17.127Z,1.6
2022-12-15T19:28:55.137Z,1.4
2022-12-15T19:34:41.902Z,1.4
2022-12-15T19:40:19.511Z,1.4
2022-12-15T19:45:42.015Z,1.4
2022-12-15T19:51:20.498Z,1.5
2022-12-15T19:56:59.135Z,1.7
2022-12-15T20:02:42.956Z,1.7
2022-12-15T20:08:23.671Z,1.5
2022-12-15T20:14:08.006Z,1.4
2022-12-15T20:19:32.492Z,1.4
2022-12-15T20:30:20.297Z,1.4
2022-12-15T20:36:04.074Z,1.3
2022-12-15T20:41:43.202Z,1.6
2022-12-15T20:47:05.523Z,1.7
2022-12-15T20:52:43.113Z,1.6
2022-12-15T20:58:06.338Z,1.5
2022-12-15T21:03:51.936Z,1.4
2022-12-15T21:09:29.930Z,1.3
2022-12-15T21:15:11.582Z,1.4
2022-12-15T21:22:08.497Z,1.3
2022-12-15T21:27:30.839Z,1
2022-12-15T21:33:16.630Z,1.3
2022-12-15T21:38:58.803Z,1.2
2022-12-15T21:44:42.290Z,1.2
2022-12-15T21:49:56.812Z,1.3
2022-12-15T21:55:38.268Z,1.4
2022-12-15T22:01:19.107Z,1.5
2022-12-15T22:07:05.128Z,1.6
2022-12-15T22:12:27.973Z,1.4
2022-12-15T22:17:52.090Z,1.3
2022-12-15T22:23:22.210Z,1.3
2022-12-15T22:28:47.418Z,1.1
2022-12-15T22:34:12.812Z,1.3
2022-12-15T22:39:57.682Z,1.1
2022-12-15T22:45:41.097Z,0.9
2022-12-15T22:51:04.154Z,1.1
2022-12-15T22:56:47.370Z,1.2
2022-12-15T23:02:27.267Z,1.1
2022-12-15T23:13:13.385Z,0.8
2022-12-15T23:18:53.267Z,0.9
2022-12-15T23:24:33.016Z,0.8
2022-12-15T23:29:57.751Z,0.8
2022-12-15T23:35:20.978Z,0.7
2022-12-15T23:40:59.411Z,0.6
2022-12-15T23:46:41.548Z,0.6
2022-12-15T23:52:20.571Z,0.6
2022-12-15T23:58:01.486Z,0.8
